Time;durP1;ratioP1;P1;durP2;ratioP2;P2;SDS_P1;SDS_P2;PMS_P1;PMS_P2;Temp;Humidity;BMP_temperature;BMP_pressure;BME280_temperature;BME280_humidity;BME280_pressure;Samples;Min_cycle;Max_cycle;Signal;HPM_P1;HPM_P2
2022/06/10 00:00:09;;;;;;;;;;;;;;;19.79;100.00;99338.88;5051070;28;20406;-53
2022/06/10 00:02:35;;;;;;;;;;;;;;;19.72;100.00;99339.78;5050372;28;19971;-53
2022/06/10 00:05:01;;;;;;;;;;;;;;;19.78;100.00;99342.09;5049588;28;20380;-53
2022/06/10 00:07:33;;;;;;;;;;;;;;;19.66;100.00;99338.72;5050690;28;19925;-53
2022/06/10 00:10:00;;;;;;;;;;;;;;;19.66;100.00;99335.13;5050595;28;19925;-53
2022/06/10 00:12:26;;;;;;;;;;;;;;;19.60;100.00;99340.38;5050539;28;19929;-53
2022/06/10 00:14:52;;;;;;;;;;;;;;;19.70;100.00;99342.22;5050326;28;19978;-51
2022/06/10 00:17:18;;;;;;;;;;;;;;;19.59;100.00;99340.78;5050648;28;19924;-53
2022/06/10 00:19:44;;;;;;;;;;;;;;;19.41;100.00;99344.63;5050349;28;20000;-53
2022/06/10 00:22:10;;;;;;;;;;;;;;;19.61;100.00;99332.81;5050516;28;19931;-52
2022/06/10 00:24:36;;;;;;;;;;;;;;;19.65;100.00;99345.47;5050287;28;20307;-55
2022/06/10 00:27:03;;;;;;;;;;;;;;;19.69;100.00;99349.00;5050594;28;19932;-53
2022/06/10 00:29:29;;;;;;;;;;;;;;;19.67;100.00;99353.41;5050192;28;20070;-50
2022/06/10 00:31:55;;;;;;;;;;;;;;;19.58;100.00;99353.91;5050134;28;19929;-51
2022/06/10 00:34:21;;;;;;;;;;;;;;;19.41;100.00;99354.97;5050033;28;19929;-52
2022/06/10 00:36:47;;;;;;;;;;;;;;;19.51;100.00;99354.03;5050144;28;19931;-53
2022/06/10 00:39:13;;;;;;;;;;;;;;;19.28;100.00;99340.84;5050238;28;19925;-53
2022/06/10 00:41:40;;;;;;;;;;;;;;;19.35;100.00;99343.53;5049920;28;19924;-50
2022/06/10 00:44:21;;;;;;;;;;;;;;;19.38;100.00;99344.69;5050334;28;19930;-52
2022/06/10 00:46:49;;;;;;;;;;;;;;;19.19;100.00;99343.38;5049115;28;19930;-53
2022/06/10 00:49:15;;;;;;;;;;;;;;;19.15;100.00;99328.75;5050333;28;20023;-53
2022/06/10 00:51:42;;;;;;;;;;;;;;;19.24;100.00;99324.22;5049980;28;20414;-51
2022/06/10 00:54:14;;;;;;;;;;;;;;;19.28;100.00;99326.97;5050461;28;19925;-53
2022/06/10 00:56:43;;;;;;;;;;;;;;;19.26;100.00;99334.94;5049819;28;20003;-53
2022/06/10 00:59:12;;;;;;;;;;;;;;;19.33;100.00;99329.28;5050084;28;19947;-52
2022/06/10 01:01:40;;;;;;;;;;;;;;;19.35;100.00;99351.09;5049902;28;19924;-53
2022/06/10 01:04:06;;;;;;;;;;;;;;;19.40;100.00;99353.41;5049807;28;19928;-54
2022/06/10 01:06:33;;;;;;;;;;;;;;;19.38;100.00;99356.59;5049793;28;20383;-50
2022/06/10 01:09:01;;;;;;;;;;;;;;;19.39;100.00;99358.19;5049308;28;19931;-51
2022/06/10 01:11:41;;;;;;;;;;;;;;;19.40;100.00;99367.31;5049857;28;19955;-53
2022/06/10 01:14:14;;;;;;;;;;;;;;;19.25;100.00;99359.16;5046574;28;19925;-53
2022/06/10 01:16:48;;;;;;;;;;;;;;;19.28;100.00;99369.44;5051771;28;19932;-51
2022/06/10 01:19:24;;;;;;;;;;;;;;;19.24;100.00;99360.38;5053116;28;19924;-54
2022/06/10 01:22:06;;;;;;;;;;;;;;;19.18;100.00;99353.69;5053078;28;19974;-52
2022/06/10 01:24:47;;;;;;;;;;;;;;;19.07;100.00;99353.06;5053296;28;19924;-53
2022/06/10 01:30:20;;;;;;;;;;;;;;;18.98;100.00;99341.69;5053459;28;19931;-53
2022/06/10 01:32:57;;;;;;;;;;;;;;;18.87;100.00;99338.25;5053054;28;19928;-51
2022/06/10 01:35:28;;;;;;;;;;;;;;;18.80;100.00;99330.81;5052856;28;19932;-53
2022/06/10 01:37:59;;;;;;;;;;;;;;;18.72;100.00;99329.31;5053216;28;20786;-52
2022/06/10 01:40:31;;;;;;;;;;;;;;;18.66;100.00;99320.66;5052776;28;19925;-52
2022/06/10 01:43:01;;;;;;;;;;;;;;;18.65;100.00;99310.72;5052963;28;19925;-53
2022/06/10 01:45:30;;;;;;;;;;;;;;;18.60;100.00;99310.41;5052830;28;20288;-53
2022/06/10 01:48:01;;;;;;;;;;;;;;;18.61;100.00;99311.97;5052589;28;19933;-53
2022/06/10 01:50:30;;;;;;;;;;;;;;;18.54;100.00;99294.19;5052658;28;19925;-53
2022/06/10 01:52:57;;;;;;;;;;;;;;;18.52;100.00;99285.50;5053030;28;19936;-53
2022/06/10 01:55:28;;;;;;;;;;;;;;;18.50;100.00;99289.91;5053135;28;19947;-52
2022/06/10 01:57:57;;;;;;;;;;;;;;;18.47;100.00;99285.97;5052473;28;19982;-50
2022/06/10 02:00:24;;;;;;;;;;;;;;;18.37;100.00;99284.09;5052532;28;19931;-54
2022/06/10 02:02:54;;;;;;;;;;;;;;;18.37;100.00;99281.31;5052413;28;19925;-52
2022/06/10 02:05:22;;;;;;;;;;;;;;;18.36;100.00;99277.00;5052772;28;19924;-51
2022/06/10 02:07:51;;;;;;;;;;;;;;;18.31;100.00;99258.00;5052465;28;19924;-53
2022/06/10 02:10:21;;;;;;;;;;;;;;;18.31;100.00;99256.00;5052409;28;20409;-50
2022/06/10 02:12:50;;;;;;;;;;;;;;;18.30;100.00;99248.91;5052116;28;19925;-53
2022/06/10 02:15:20;;;;;;;;;;;;;;;18.28;100.00;99245.75;5052233;28;19929;-53
2022/06/10 02:17:48;;;;;;;;;;;;;;;18.29;100.00;99258.44;5052361;28;19931;-54
2022/06/10 02:20:16;;;;;;;;;;;;;;;18.32;100.00;99254.81;5052204;28;19924;-53
2022/06/10 02:22:45;;;;;;;;;;;;;;;18.44;100.00;99261.03;5052599;28;20769;-52
2022/06/10 02:25:13;;;;;;;;;;;;;;;18.69;100.00;99269.00;5052129;28;20015;-52
2022/06/10 02:27:41;;;;;;;;;;;;;;;19.05;100.00;99302.69;5051249;28;19971;-53
2022/06/10 02:30:10;;;;;;;;;;;;;;;19.27;100.00;99331.72;5052030;28;20011;-51
2022/06/10 02:32:37;;;;;;;;;;;;;;;19.59;100.00;99388.06;5052241;28;19934;-54
2022/06/10 02:35:04;;;;;;;;;;;;;;;19.80;100.00;99406.47;5051956;28;19925;-53
2022/06/10 02:37:33;;;;;;;;;;;;;;;20.13;100.00;99418.63;5052074;28;19924;-53
2022/06/10 02:40:04;;;;;;;;;;;;;;;20.26;100.00;99427.97;5052342;28;19925;-52
2022/06/10 02:42:34;;;;;;;;;;;;;;;20.42;100.00;99418.91;5051739;28;19938;-53
2022/06/10 02:45:02;;;;;;;;;;;;;;;20.57;100.00;99416.69;5052179;28;19947;-52
2022/06/10 02:47:31;;;;;;;;;;;;;;;20.91;100.00;99385.75;5051993;28;20315;-54
2022/06/10 02:49:57;;;;;;;;;;;;;;;21.11;100.00;99372.59;5051878;28;19931;-53
2022/06/10 02:52:26;;;;;;;;;;;;;;;21.38;100.00;99338.16;5051631;28;19928;-53
2022/06/10 02:54:52;;;;;;;;;;;;;;;21.73;100.00;99277.16;5051966;28;19929;-53
2022/06/10 02:57:20;;;;;;;;;;;;;;;21.69;100.00;99229.00;5051517;28;19931;-53
2022/06/10 03:02:40;;;;;;;;;;;;;;;22.26;100.00;99062.75;5051847;28;19931;-53
2022/06/10 03:05:15;;;;;;;;;;;;;;;22.78;100.00;98963.63;5051334;28;19933;-55
2022/06/10 03:07:44;;;;;;;;;;;;;;;22.50;100.00;98943.06;5051614;28;19931;-53
2022/06/10 03:10:18;;;;;;;;;;;;;;;22.02;100.00;99048.28;5051585;28;19979;-54
2022/06/10 03:12:50;;;;;;;;;;;;;;;22.61;100.00;98942.69;5051777;28;19928;-54
2022/06/10 03:15:22;;;;;;;;;;;;;;;22.58;100.00;98896.88;5051466;28;19981;-55
2022/06/10 03:17:53;;;;;;;;;;;;;;;23.27;100.00;98786.91;5051691;28;19924;-54
2022/06/10 03:20:20;;;;;;;;;;;;;;;23.78;100.00;98621.31;5051335;28;20402;-57
2022/06/10 03:22:54;;;;;;;;;;;;;;;23.73;100.00;98596.78;5051398;28;19929;-55
2022/06/10 03:25:21;;;;;;;;;;;;;;;24.15;100.00;98512.03;5051551;28;19946;-56
2022/06/10 03:27:51;;;;;;;;;;;;;;;24.34;100.00;98409.09;5051231;28;20401;-56
2022/06/10 03:30:19;;;;;;;;;;;;;;;24.23;100.00;98319.25;5051171;28;20394;-55
2022/06/10 03:32:48;;;;;;;;;;;;;;;24.50;100.00;98352.69;5051256;28;19925;-55
2022/06/10 03:35:15;;;;;;;;;;;;;;;25.09;100.00;98335.94;5051191;28;19924;-57
2022/06/10 03:37:41;;;;;;;;;;;;;;;25.09;100.00;98254.59;5051150;28;20447;-57
2022/06/10 03:40:14;;;;;;;;;;;;;;;25.19;100.00;98218.84;5050766;28;19926;-58
2022/06/10 03:42:44;;;;;;;;;;;;;;;25.37;100.00;98153.28;5050963;28;19931;-56
2022/06/10 03:45:14;;;;;;;;;;;;;;;25.69;100.00;98106.50;5051246;28;19924;-57
2022/06/10 03:47:40;;;;;;;;;;;;;;;25.97;100.00;98045.03;5050843;28;19931;-57
2022/06/10 03:50:08;;;;;;;;;;;;;;;25.86;100.00;98058.19;5050769;28;19929;-57
2022/06/10 03:52:35;;;;;;;;;;;;;;;26.39;100.00;98029.53;5050831;28;19973;-57
2022/06/10 03:55:01;;;;;;;;;;;;;;;26.31;100.00;98041.72;5050745;28;19924;-57
2022/06/10 03:57:27;;;;;;;;;;;;;;;26.34;100.00;98032.28;5050895;28;19947;-57
2022/06/10 03:59:53;;;;;;;;;;;;;;;25.99;100.00;98095.06;5050697;28;19931;-57
2022/06/10 04:02:20;;;;;;;;;;;;;;;26.05;100.00;98085.41;5050625;28;19925;-57
2022/06/10 04:04:46;;;;;;;;;;;;;;;25.71;100.00;98025.34;5050640;28;19929;-57
2022/06/10 04:07:13;;;;;;;;;;;;;;;26.64;100.00;98002.63;5050576;28;20391;-57
2022/06/10 04:09:39;;;;;;;;;;;;;;;26.33;100.00;98005.47;5050616;28;20006;-57
2022/06/10 04:12:06;;;;;;;;;;;;;;;26.56;100.00;97995.16;5050723;28;19931;-57
2022/06/10 04:14:32;;;;;;;;;;;;;;;26.68;100.00;97991.91;5050524;28;19925;-57
2022/06/10 04:16:58;;;;;;;;;;;;;;;26.24;100.00;98046.53;5050657;28;19931;-57
2022/06/10 04:19:25;;;;;;;;;;;;;;;26.99;100.00;97962.13;5050606;28;20327;-57
2022/06/10 04:21:51;;;;;;;;;;;;;;;26.45;100.00;97993.03;5050261;28;19925;-58
2022/06/10 04:24:17;;;;;;;;;;;;;;;27.28;100.00;97915.94;5050466;28;19932;-57
2022/06/10 04:26:42;;;;;;;;;;;;;;;27.62;100.00;97904.72;5050172;28;19924;-57
2022/06/10 04:29:09;;;;;;;;;;;;;;;27.57;100.00;97908.31;5050220;28;19925;-57
2022/06/10 04:31:35;;;;;;;;;;;;;;;27.24;100.00;97904.19;5050122;28;20388;-57
2022/06/10 04:34:00;;;;;;;;;;;;;;;27.07;100.00;97915.38;5050191;28;19925;-57
2022/06/10 04:36:29;;;;;;;;;;;;;;;27.50;100.00;97903.97;5050075;28;20298;-57
2022/06/10 04:38:55;;;;;;;;;;;;;;;27.77;100.00;97915.75;5050373;28;19924;-58
2022/06/10 04:41:21;;;;;;;;;;;;;;;28.46;100.00;97884.94;5050089;28;20009;-57
2022/06/10 04:43:47;;;;;;;;;;;;;;;28.19;100.00;97882.91;5050149;28;19931;-57
2022/06/10 04:46:21;;;;;;;;;;;;;;;28.51;100.00;97889.75;5050200;28;19932;-57
2022/06/10 04:48:47;;;;;;;;;;;;;;;28.35;100.00;97885.69;5049935;28;20371;-58
2022/06/10 04:51:13;;;;;;;;;;;;;;;28.42;100.00;97887.22;5053804;28;20070;-57
2022/06/10 04:53:40;;;;;;;;;;;;;;;29.13;100.00;97908.47;5056303;28;19983;-57
2022/06/10 04:56:06;;;;;;;;;;;;;;;28.81;100.00;97889.13;5056703;28;20405;-57
2022/06/10 04:58:32;;;;;;;;;;;;;;;29.39;100.00;97908.03;5056553;28;19925;-57
2022/06/10 05:00:57;;;;;;;;;;;;;;;29.92;100.00;97922.78;5056598;28;20352;-57
2022/06/10 05:03:23;;;;;;;;;;;;;;;28.91;100.00;97907.28;5056199;28;20412;-57
2022/06/10 05:05:49;;;;;;;;;;;;;;;28.47;100.00;97886.44;5056831;28;19924;-57
2022/06/10 05:08:17;;;;;;;;;;;;;;;28.22;100.00;97895.97;5056729;28;20683;-58
2022/06/10 05:10:43;;;;;;;;;;;;;;;29.93;100.00;97922.28;5056866;28;19966;-58
2022/06/10 05:13:09;;;;;;;;;;;;;;;30.16;100.00;97914.34;5056386;28;20454;-58
2022/06/10 05:15:36;;;;;;;;;;;;;;;29.83;100.00;97934.44;5056504;28;19924;-57
2022/06/10 05:18:02;;;;;;;;;;;;;;;30.18;100.00;97928.72;5056509;28;19986;-58
2022/06/10 05:20:29;;;;;;;;;;;;;;;29.93;100.00;97973.13;5056131;28;19925;-57
2022/06/10 05:22:55;;;;;;;;;;;;;;;29.95;100.00;97936.63;5056272;28;19924;-57
2022/06/10 05:25:22;;;;;;;;;;;;;;;30.07;100.00;97953.47;5056120;28;20379;-57
2022/06/10 05:27:48;;;;;;;;;;;;;;;30.38;100.00;97935.22;5056190;28;19924;-58
2022/06/10 05:30:16;;;;;;;;;;;;;;;30.77;100.00;97985.72;5056072;28;19932;-58
2022/06/10 05:32:42;;;;;;;;;;;;;;;30.56;100.00;97939.41;5056244;28;20011;-58
2022/06/10 05:35:08;;;;;;;;;;;;;;;31.01;100.00;98001.13;5055888;28;19932;-58
2022/06/10 05:37:34;;;;;;;;;;;;;;;31.56;100.00;97996.81;5056083;28;19924;-58
2022/06/10 05:40:00;;;;;;;;;;;;;;;31.55;100.00;98006.59;5055846;28;20330;-58
2022/06/10 05:42:27;;;;;;;;;;;;;;;31.90;100.00;98012.56;5056091;28;20027;-58
2022/06/10 05:44:53;;;;;;;;;;;;;;;31.45;100.00;97996.19;5056048;28;19930;-58
2022/06/10 05:47:20;;;;;;;;;;;;;;;31.78;100.00;98015.53;5055747;28;19925;-58
2022/06/10 05:49:47;;;;;;;;;;;;;;;32.06;100.00;98049.16;5055808;28;19978;-58
2022/06/10 05:52:15;;;;;;;;;;;;;;;32.33;100.00;98077.59;5055869;28;19924;-58
2022/06/10 05:54:43;;;;;;;;;;;;;;;32.20;100.00;98066.19;5055702;28;19931;-58
2022/06/10 05:57:10;;;;;;;;;;;;;;;32.24;100.00;98072.31;5055583;28;19930;-59
2022/06/10 05:59:36;;;;;;;;;;;;;;;32.82;100.00;98074.41;5055778;28;20365;-58
2022/06/10 06:02:04;;;;;;;;;;;;;;;31.53;100.00;98034.69;5054481;28;20317;-57
2022/06/10 06:04:30;;;;;;;;;;;;;;;32.89;100.00;98053.13;5052397;28;19924;-58
2022/06/10 06:06:56;;;;;;;;;;;;;;;32.87;100.00;98069.97;5052157;28;19935;-58
2022/06/10 06:09:22;;;;;;;;;;;;;;;32.44;100.00;98096.50;5052358;28;20368;-58
2022/06/10 06:11:50;;;;;;;;;;;;;;;33.44;100.00;98147.09;5052011;28;20427;-58
2022/06/10 06:14:17;;;;;;;;;;;;;;;33.63;100.00;98147.75;5052128;28;19924;-58
2022/06/10 06:16:43;;;;;;;;;;;;;;;33.55;100.00;98118.47;5052207;28;19925;-58
2022/06/10 06:19:10;;;;;;;;;;;;;;;32.89;100.00;98092.88;5052058;28;19960;-58
2022/06/10 06:21:36;;;;;;;;;;;;;;;33.02;100.00;98098.59;5051873;28;19928;-58
2022/06/10 06:24:02;;;;;;;;;;;;;;;33.49;100.00;98109.31;5051985;28;19932;-58
2022/06/10 06:26:28;;;;;;;;;;;;;;;33.64;100.00;98152.13;5052000;28;19932;-58
2022/06/10 06:28:54;;;;;;;;;;;;;;;34.00;100.00;98165.84;5052064;28;19978;-58
2022/06/10 06:31:22;;;;;;;;;;;;;;;34.56;100.00;98229.28;5051635;28;19928;-58
2022/06/10 06:33:48;;;;;;;;;;;;;;;33.47;100.00;98191.47;5051740;28;19925;-58
2022/06/10 06:36:16;;;;;;;;;;;;;;;34.20;100.00;98244.78;5052072;28;20340;-58
2022/06/10 06:38:42;;;;;;;;;;;;;;;34.14;100.00;98264.06;5051477;28;19944;-59
2022/06/10 06:41:09;;;;;;;;;;;;;;;34.71;100.00;98297.00;5051658;28;19924;-58
2022/06/10 06:43:35;;;;;;;;;;;;;;;34.87;100.00;98307.22;5051519;28;19935;-58
2022/06/10 06:46:01;;;;;;;;;;;;;;;34.93;100.00;98296.47;5051531;28;20007;-58
2022/06/10 06:48:27;;;;;;;;;;;;;;;35.12;100.00;98430.94;5051681;28;20248;-59
2022/06/10 06:50:53;;;;;;;;;;;;;;;34.22;100.00;98355.16;5051554;28;19951;-58
2022/06/10 06:53:20;;;;;;;;;;;;;;;35.33;100.00;98351.19;5051262;28;19932;-58
2022/06/10 06:55:46;;;;;;;;;;;;;;;35.77;100.00;98410.50;5051462;28;19928;-58
2022/06/10 06:58:14;;;;;;;;;;;;;;;36.17;100.00;98433.84;5051610;28;19924;-59
2022/06/10 07:00:39;;;;;;;;;;;;;;;35.65;100.00;98380.75;5051642;28;19924;-58
2022/06/10 07:03:05;;;;;;;;;;;;;;;35.82;100.00;98350.50;5051593;28;19978;-58
2022/06/10 07:05:31;;;;;;;;;;;;;;;35.02;100.00;98384.31;5051325;28;19979;-58
2022/06/10 07:07:58;;;;;;;;;;;;;;;35.68;100.00;98371.84;5051463;28;19928;-59
2022/06/10 07:10:24;;;;;;;;;;;;;;;35.98;100.00;98384.81;5051300;28;19931;-59
2022/06/10 07:12:50;;;;;;;;;;;;;;;36.05;100.00;98353.50;5051185;28;19924;-59
2022/06/10 07:15:17;;;;;;;;;;;;;;;35.97;100.00;98401.16;5050648;28;19929;-59
2022/06/10 07:17:43;;;;;;;;;;;;;;;35.07;100.00;98359.84;5051072;28;20371;-60
2022/06/10 07:20:16;;;;;;;;;;;;;;;35.07;100.00;98359.84;5051245;28;19924;-59
2022/06/10 07:22:42;;;;;;;;;;;;;;;36.13;100.00;98389.88;5051042;28;19925;-59
2022/06/10 07:25:08;;;;;;;;;;;;;;;36.01;100.00;98378.78;5051404;28;19925;-60
2022/06/10 07:27:36;;;;;;;;;;;;;;;36.00;100.00;98359.34;5051288;28;20724;-59
2022/06/10 07:30:03;;;;;;;;;;;;;;;35.99;100.00;98341.47;5051101;28;19959;-57
2022/06/10 07:32:29;;;;;;;;;;;;;;;36.42;100.00;98360.00;5051253;28;20380;-58
2022/06/10 07:34:55;;;;;;;;;;;;;;;36.17;100.00;98341.78;5051325;28;19951;-58
2022/06/10 07:37:21;;;;;;;;;;;;;;;35.95;100.00;98343.91;5051354;28;19934;-59
2022/06/10 07:39:47;;;;;;;;;;;;;;;35.82;100.00;98386.75;5050886;28;19932;-59
2022/06/10 07:42:12;;;;;;;;;;;;;;;36.32;100.00;98421.00;5050837;28;19932;-59
2022/06/10 07:44:39;;;;;;;;;;;;;;;36.73;100.00;98440.09;5050847;28;19925;-58
2022/06/10 07:47:07;;;;;;;;;;;;;;;35.91;100.00;98431.91;5050785;28;19932;-58
2022/06/10 07:49:33;;;;;;;;;;;;;;;36.59;100.00;98439.47;5050696;28;19924;-58
2022/06/10 07:52:00;;;;;;;;;;;;;;;36.50;100.00;98442.84;5050613;28;20046;-59
2022/06/10 07:54:26;;;;;;;;;;;;;;;36.32;100.00;98406.72;5050803;28;20011;-58
2022/06/10 07:56:52;;;;;;;;;;;;;;;36.39;100.00;98401.09;5050938;28;19931;-58
2022/06/10 07:59:18;;;;;;;;;;;;;;;35.38;100.00;98417.91;5050661;28;19925;-59
2022/06/10 08:01:45;;;;;;;;;;;;;;;35.82;100.00;98398.97;5050779;28;20379;-58
2022/06/10 08:04:11;;;;;;;;;;;;;;;35.71;100.00;98410.63;5050484;28;19931;-56
2022/06/10 08:06:39;;;;;;;;;;;;;;;36.10;100.00;98405.28;5050373;28;19924;-58
2022/06/10 08:09:06;;;;;;;;;;;;;;;35.45;100.00;98383.00;5050510;28;19939;-58
2022/06/10 08:11:32;;;;;;;;;;;;;;;36.37;100.00;98417.22;5050046;28;20430;-58
2022/06/10 08:13:58;;;;;;;;;;;;;;;37.01;100.00;98438.53;5050279;28;20030;-58
2022/06/10 08:16:25;;;;;;;;;;;;;;;36.60;100.00;98420.25;5050370;28;19925;-58
2022/06/10 08:18:52;;;;;;;;;;;;;;;36.14;100.00;98399.97;5050281;28;19975;-58
2022/06/10 08:24:11;;;;;;;;;;;;;;;36.31;100.00;98448.78;5049155;28;19925;-58
2022/06/10 08:26:37;;;;;;;;;;;;;;;37.00;100.00;98485.56;5049020;28;19925;-58
2022/06/10 08:29:03;;;;;;;;;;;;;;;37.28;100.00;98496.91;5050425;28;19925;-59
2022/06/10 08:31:29;;;;;;;;;;;;;;;36.49;100.00;98510.59;5049908;28;20280;-58
2022/06/10 08:33:57;;;;;;;;;;;;;;;35.61;100.00;98460.16;5050018;28;19950;-58
2022/06/10 08:36:23;;;;;;;;;;;;;;;34.75;100.00;98394.19;5050115;28;19925;-59
2022/06/10 08:38:49;;;;;;;;;;;;;;;33.83;100.00;98353.81;5050000;28;20023;-59
2022/06/10 08:41:20;;;;;;;;;;;;;;;33.28;100.00;98399.66;5049895;28;19982;-59
2022/06/10 08:43:51;;;;;;;;;;;;;;;33.13;100.00;98294.31;5049981;28;19951;-59
2022/06/10 08:46:22;;;;;;;;;;;;;;;32.57;100.00;98229.88;5049878;28;19931;-59
2022/06/10 08:49:00;;;;;;;;;;;;;;;32.27;100.00;98216.63;5049823;28;20525;-59
2022/06/10 08:51:30;;;;;;;;;;;;;;;32.03;100.00;98160.78;5049816;28;20500;-59
2022/06/10 08:54:13;;;;;;;;;;;;;;;31.67;100.00;98086.53;5049728;28;19932;-59
2022/06/10 08:56:40;;;;;;;;;;;;;;;33.09;100.00;98214.38;5049677;28;19925;-59
2022/06/10 08:59:14;;;;;;;;;;;;;;;33.78;100.00;98428.59;5049837;28;20031;-59
2022/06/10 09:01:44;;;;;;;;;;;;;;;33.51;100.00;98387.97;5049602;28;19924;-59
2022/06/10 09:04:21;;;;;;;;;;;;;;;33.95;100.00;98354.38;5049672;28;19928;-59
2022/06/10 09:06:51;;;;;;;;;;;;;;;33.19;100.00;98328.28;5049196;28;19925;-59
2022/06/10 09:09:18;;;;;;;;;;;;;;;32.86;100.00;98336.00;5049596;28;19924;-59
2022/06/10 09:11:49;;;;;;;;;;;;;;;32.73;100.00;98302.66;5049557;28;19925;-59
2022/06/10 09:14:17;;;;;;;;;;;;;;;33.07;100.00;98270.16;5049628;28;20014;-59
2022/06/10 09:16:48;;;;;;;;;;;;;;;33.85;100.00;98273.66;5049704;28;19925;-59
2022/06/10 09:19:21;;;;;;;;;;;;;;;34.53;100.00;98381.97;5049541;28;19924;-59
2022/06/10 09:21:51;;;;;;;;;;;;;;;35.05;100.00;98410.91;5049724;28;19974;-59
2022/06/10 09:24:21;;;;;;;;;;;;;;;35.33;100.00;98445.22;5049503;28;19924;-59
2022/06/10 09:26:50;;;;;;;;;;;;;;;35.77;100.00;98411.25;5049378;28;19925;-59
2022/06/10 09:29:16;;;;;;;;;;;;;;;36.46;100.00;98494.56;5049451;28;19929;-59
2022/06/10 09:31:45;;;;;;;;;;;;;;;36.43;100.00;98544.19;5049375;28;19947;-60
2022/06/10 09:34:19;;;;;;;;;;;;;;;34.17;100.00;98512.50;5049107;28;19925;-59
2022/06/10 09:36:49;;;;;;;;;;;;;;;34.84;100.00;98434.38;5049907;28;20387;-59
2022/06/10 09:42:09;;;;;;;;;;;;;;;33.60;100.00;98361.22;5052883;28;20479;-59
2022/06/10 09:44:41;;;;;;;;;;;;;;;33.38;100.00;98402.09;5052882;28;19974;-59
2022/06/10 09:47:17;;;;;;;;;;;;;;;33.15;100.00;98396.75;5052752;28;19978;-59
2022/06/10 09:49:53;;;;;;;;;;;;;;;32.88;100.00;98397.91;5052911;28;20007;-59
2022/06/10 09:52:20;;;;;;;;;;;;;;;32.54;100.00;98395.50;5052508;28;19931;-59
2022/06/10 09:55:06;;;;;;;;;;;;;;;32.80;100.00;98420.47;5052628;28;19994;-59
2022/06/10 09:58:00;;;;;;;;;;;;;;;32.74;100.00;98341.06;5052145;28;19932;-59
2022/06/10 10:00:31;;;;;;;;;;;;;;;32.83;100.00;98456.28;5052553;28;19935;-59
2022/06/10 10:03:03;;;;;;;;;;;;;;;32.84;100.00;98418.09;5052626;28;19925;-59
2022/06/10 10:05:33;;;;;;;;;;;;;;;32.42;100.00;98371.38;5052296;28;19970;-59
2022/06/10 10:08:05;;;;;;;;;;;;;;;32.27;100.00;98321.53;5052265;28;19924;-59
2022/06/10 10:10:34;;;;;;;;;;;;;;;31.71;100.00;98287.38;5052144;28;19932;-59
2022/06/10 10:13:18;;;;;;;;;;;;;;;31.57;100.00;98270.28;5051969;28;19929;-59
2022/06/10 10:15:49;;;;;;;;;;;;;;;31.23;100.00;98312.28;5051328;28;19924;-59
2022/06/10 10:18:27;;;;;;;;;;;;;;;30.86;100.00;98217.38;5052092;28;19925;-59
2022/06/10 10:21:00;;;;;;;;;;;;;;;30.59;100.00;98201.34;5052351;28;20276;-59
2022/06/10 10:23:30;;;;;;;;;;;;;;;30.97;100.00;98176.88;5052021;28;19929;-59
2022/06/10 10:25:57;;;;;;;;;;;;;;;30.98;100.00;98181.25;5052174;28;19929;-59
2022/06/10 10:28:25;;;;;;;;;;;;;;;31.39;100.00;98297.22;5051846;28;20286;-58
2022/06/10 10:30:56;;;;;;;;;;;;;;;31.06;100.00;98366.19;5052050;28;19929;-59
2022/06/10 10:33:22;;;;;;;;;;;;;;;31.04;100.00;98306.50;5051898;28;19924;-59
2022/06/10 10:35:49;;;;;;;;;;;;;;;31.18;100.00;98330.06;5051765;28;19971;-57
2022/06/10 10:38:31;;;;;;;;;;;;;;;30.66;100.00;98291.31;5051795;28;19924;-58
2022/06/10 10:40:57;;;;;;;;;;;;;;;30.84;100.00;98293.53;5051934;28;19925;-59
2022/06/10 10:43:25;;;;;;;;;;;;;;;31.19;100.00;98388.25;5052030;28;19940;-58
2022/06/10 10:45:53;;;;;;;;;;;;;;;31.65;100.00;98406.44;5051698;28;19929;-59
2022/06/10 10:48:22;;;;;;;;;;;;;;;31.88;100.00;98379.44;5051117;28;19944;-59
2022/06/10 10:50:54;;;;;;;;;;;;;;;31.73;100.00;98387.56;5051562;28;19925;-59
2022/06/10 10:53:22;;;;;;;;;;;;;;;31.58;100.00;98398.50;5051505;28;19932;-59
2022/06/10 10:55:50;;;;;;;;;;;;;;;31.68;100.00;98353.63;5051891;28;19925;-59
2022/06/10 10:58:20;;;;;;;;;;;;;;;30.89;100.00;98363.47;5051681;28;19929;-59
2022/06/10 11:00:55;;;;;;;;;;;;;;;30.52;100.00;98346.16;5051498;28;20323;-58
2022/06/10 11:03:23;;;;;;;;;;;;;;;30.63;100.00;98335.56;5051644;28;19924;-57
2022/06/10 11:05:50;;;;;;;;;;;;;;;30.64;100.00;98421.94;5051449;28;19924;-57
2022/06/10 11:08:19;;;;;;;;;;;;;;;30.84;100.00;98394.63;5051483;28;19929;-58
2022/06/10 11:10:59;;;;;;;;;;;;;;;30.84;100.00;98344.47;5051634;28;19975;-58
2022/06/10 11:13:30;;;;;;;;;;;;;;;30.88;100.00;98335.69;5051198;28;19924;-58
2022/06/10 11:16:11;;;;;;;;;;;;;;;30.96;100.00;98325.34;5051383;28;19924;-59
2022/06/10 11:18:37;;;;;;;;;;;;;;;30.91;100.00;98343.88;5051262;28;20008;-59
2022/06/10 11:21:03;;;;;;;;;;;;;;;31.33;100.00;98319.16;5051218;28;19973;-58
2022/06/10 11:23:29;;;;;;;;;;;;;;;31.53;100.00;98388.78;5051182;28;19924;-57
2022/06/10 11:26:03;;;;;;;;;;;;;;;31.49;100.00;98475.31;5051359;28;19929;-58
2022/06/10 11:28:34;;;;;;;;;;;;;;;31.02;100.00;98427.19;5051138;28;19928;-58
2022/06/10 11:31:00;;;;;;;;;;;;;;;31.40;100.00;98456.59;5050983;28;19924;-58
2022/06/10 11:33:29;;;;;;;;;;;;;;;31.30;100.00;98475.16;5050987;28;19936;-60
2022/06/10 11:36:00;;;;;;;;;;;;;;;31.49;100.00;98475.31;5050851;28;20047;-58
2022/06/10 11:38:28;;;;;;;;;;;;;;;31.21;100.00;98456.41;5051099;28;20372;-58
2022/06/10 11:40:55;;;;;;;;;;;;;;;31.12;100.00;98453.91;5050943;28;19931;-57
2022/06/10 11:43:23;;;;;;;;;;;;;;;31.68;100.00;98462.03;5050871;28;19924;-57
2022/06/10 11:45:51;;;;;;;;;;;;;;;31.72;100.00;98456.09;5050951;28;20421;-57
2022/06/10 11:48:23;;;;;;;;;;;;;;;31.49;100.00;98467.59;5050940;28;20015;-57
2022/06/10 11:50:54;;;;;;;;;;;;;;;31.63;100.00;98468.53;5050886;28;19925;-57
2022/06/10 11:53:23;;;;;;;;;;;;;;;31.84;100.00;98384.63;5050542;28;19947;-58
2022/06/10 11:59:42;;;;;;;;;;;;;;;31.81;100.00;98377.16;5050657;28;20388;-57
2022/06/10 12:01:27;;;;;;;;;;;;;;;31.39;100.00;98373.69;5050566;28;19974;-57
2022/06/10 12:03:56;;;;;;;;;;;;;;;31.51;100.00;98373.59;5050269;28;19924;-57
2022/06/10 12:06:25;;;;;;;;;;;;;;;31.53;100.00;98424.84;5050538;28;19931;-57
2022/06/10 12:08:54;;;;;;;;;;;;;;;31.11;100.00;98344.78;5050650;28;19924;-57
2022/06/10 12:11:25;;;;;;;;;;;;;;;31.13;100.00;98379.78;5050337;28;19924;-57
2022/06/10 12:13:55;;;;;;;;;;;;;;;31.01;100.00;98420.00;5050672;28;19987;-57
2022/06/10 12:16:21;;;;;;;;;;;;;;;31.14;100.00;98440.00;5050121;28;19924;-58
2022/06/10 12:18:49;;;;;;;;;;;;;;;31.12;100.00;98440.53;5050433;28;20292;-58
2022/06/10 12:21:16;;;;;;;;;;;;;;;30.92;100.00;98455.81;5050372;28;20379;-58
2022/06/10 12:23:45;;;;;;;;;;;;;;;31.29;100.00;98440.44;5050033;28;20407;-58
2022/06/10 12:26:15;;;;;;;;;;;;;;;31.58;100.00;98455.16;5050389;28;19948;-58
2022/06/10 12:28:42;;;;;;;;;;;;;;;31.67;100.00;98443.50;5050307;28;19925;-58
2022/06/10 12:31:19;;;;;;;;;;;;;;;31.12;100.00;98474.50;5050111;28;19924;-58
2022/06/10 12:33:50;;;;;;;;;;;;;;;31.53;100.00;98475.81;5049703;28;19954;-58
2022/06/10 12:36:19;;;;;;;;;;;;;;;31.55;100.00;98507.22;5050584;28;19928;-58
2022/06/10 12:38:47;;;;;;;;;;;;;;;31.62;100.00;98473.44;5049885;28;19924;-58
2022/06/10 12:41:14;;;;;;;;;;;;;;;32.00;100.00;98478.56;5050165;28;20019;-58
2022/06/10 12:43:43;;;;;;;;;;;;;;;31.22;100.00;98468.50;5049743;28;20403;-58
2022/06/10 12:46:19;;;;;;;;;;;;;;;31.75;100.00;98489.03;5049995;28;19925;-58
2022/06/10 12:48:46;;;;;;;;;;;;;;;31.84;100.00;98497.22;5049973;28;19947;-58
2022/06/10 12:51:33;;;;;;;;;;;;;;;31.79;100.00;98430.78;5050055;28;20011;-58
2022/06/10 12:54:03;;;;;;;;;;;;;;;31.60;100.00;98497.91;5049903;28;19970;-58
2022/06/10 12:56:31;;;;;;;;;;;;;;;31.87;100.00;98448.78;5049803;28;20303;-58